Terminal Aerodrome Forecast
Issued by NWS Charleston, WV

Home | Current Version | Previous Version | Text Only | Print | Product List | Glossary On
Versions: 1 2 3 4 5 6 7 8 9 10 11 12 13 14 15 16 17 18 19 20 21 22 23 24
076
FTUS41 KRLX 211520 AAB
TAFHTS
TAF AMD
KHTS 211520Z 2115/2212 00000KT P6SM SCT050 BKN200
     FM211700 18006KT P6SM BKN040
     FM220200 17003KT P6SM BKN070
     FM221000 15005KT P6SM BKN045=

USA.gov is the U.S. government's official web portal to all federal, state and local government web resources and services.